createdAt,value
2022-10-23T00:00:11.647Z,100571.34
2022-10-23T00:02:44.035Z,100577.75
2022-10-23T00:05:14.075Z,100578.91
2022-10-23T00:07:43.494Z,100580.44
2022-10-23T00:10:13.116Z,100587.25
2022-10-23T00:12:42.011Z,100596.59
2022-10-23T00:15:12.603Z,100599.75
2022-10-23T00:17:42.242Z,100604.94
2022-10-23T00:20:14.424Z,100601.72
2022-10-23T00:22:43.404Z,100607.34
2022-10-23T00:25:13.945Z,100608.50
2022-10-23T00:27:45.253Z,100608.56
2022-10-23T00:30:15.221Z,100608.62
2022-10-23T00:32:49.243Z,100612.09
2022-10-23T00:35:17.804Z,100616.50
2022-10-23T00:37:46.356Z,100620.41
2022-10-23T00:40:15.737Z,100620.91
2022-10-23T00:42:46.491Z,100626.84
2022-10-23T00:45:27.172Z,100631.22
2022-10-23T00:47:58.711Z,100633.25
2022-10-23T00:50:31.691Z,100638.09
2022-10-23T00:53:04.113Z,100648.19
2022-10-23T00:55:35.098Z,100658.50
2022-10-23T00:58:07.676Z,100652.69
2022-10-23T01:00:53.477Z,100658.78
2022-10-23T01:03:27.562Z,100659.44
2022-10-23T01:06:05.977Z,100657.22
2022-10-23T01:08:56.978Z,100665.25
2022-10-23T01:11:40.653Z,100674.87
2022-10-23T01:14:32.472Z,100671.16
2022-10-23T01:17:08.696Z,100669.78
2022-10-23T01:20:14.750Z,100672.25
2022-10-23T01:23:01.397Z,100671.25
2022-10-23T01:26:10.475Z,100673.66
2022-10-23T01:28:48.616Z,100670.59
2022-10-23T01:31:22.535Z,100672.22
2022-10-23T01:33:58.090Z,100671.66
2022-10-23T01:36:29.521Z,100660.34
2022-10-23T01:41:46.255Z,100659.62
2022-10-23T01:44:36.512Z,100658.84
2022-10-23T01:47:07.887Z,100659.47
2022-10-23T01:49:42.456Z,100664.78
2022-10-23T01:52:13.685Z,100663.94
2022-10-23T01:54:44.179Z,100659.06
2022-10-23T01:57:15.007Z,100671.50
2022-10-23T01:59:52.595Z,100661.28
2022-10-23T02:02:22.880Z,100659.41
2022-10-23T02:04:57.213Z,100663.09
2022-10-23T02:07:25.367Z,100668.94
2022-10-23T02:09:54.136Z,100672.25
2022-10-23T02:12:22.912Z,100664.72
2022-10-23T02:15:12.356Z,100665.53
2022-10-23T02:18:07.452Z,100662.84
2022-10-23T02:20:41.351Z,100665.94
2022-10-23T02:23:16.319Z,100675.13
2022-10-23T02:25:49.494Z,100669.97
2022-10-23T02:28:25.091Z,100663.91
2022-10-23T02:30:54.859Z,100660.06
2022-10-23T02:33:27.518Z,100664.72
2022-10-23T02:35:55.768Z,100667.69
2022-10-23T02:38:35.769Z,100671.94
2022-10-23T02:41:11.802Z,100669.91
2022-10-23T02:44:22.224Z,100687.16
2022-10-23T02:46:53.745Z,100692.34
2022-10-23T02:49:38.561Z,100695.72
2022-10-23T02:52:26.141Z,100694.28
2022-10-23T02:55:31.320Z,100699.19
2022-10-23T02:58:09.061Z,100703.03
2022-10-23T03:00:44.324Z,100702.41
2022-10-23T03:03:16.669Z,100705.37
2022-10-23T03:05:46.536Z,100701.28
2022-10-23T03:08:15.629Z,100708.16
2022-10-23T03:10:43.766Z,100715.19
2022-10-23T03:13:13.299Z,100713.19
2022-10-23T03:15:41.182Z,100713.25
2022-10-23T03:18:12.320Z,100716.59
2022-10-23T03:20:40.825Z,100718.78
2022-10-23T03:23:12.968Z,100719.19
2022-10-23T03:25:41.224Z,100721.44
2022-10-23T03:28:10.536Z,100729.56
2022-10-23T03:30:38.733Z,100731.38
2022-10-23T03:33:10.323Z,100727.50
2022-10-23T03:35:38.287Z,100730.16
2022-10-23T03:38:07.835Z,100735.03
2022-10-23T03:40:38.904Z,100729.16
2022-10-23T03:43:06.796Z,100726.88
2022-10-23T03:45:37.192Z,100720.09
2022-10-23T03:48:06.914Z,100723.59
2022-10-23T03:50:37.115Z,100729.28
2022-10-23T03:53:09.783Z,100731.38
2022-10-23T03:55:37.824Z,100722.84
2022-10-23T03:58:05.568Z,100728.09
2022-10-23T04:00:33.650Z,100733.44
2022-10-23T04:03:02.896Z,100721.56
2022-10-23T04:05:31.361Z,100729.66
2022-10-23T04:08:01.913Z,100733.53
2022-10-23T04:10:33.320Z,100733.50
2022-10-23T04:13:02.081Z,100730.03
2022-10-23T04:15:33.736Z,100721.44
2022-10-23T04:18:03.076Z,100718.44
2022-10-23T04:20:32.389Z,100720.88
2022-10-23T04:23:01.973Z,100722.22
2022-10-23T04:25:29.942Z,100715.25
2022-10-23T04:27:58.686Z,100718.31
2022-10-23T04:30:29.086Z,100720.81
2022-10-23T04:32:57.092Z,100718.37
2022-10-23T04:35:24.852Z,100714.59
2022-10-23T04:37:54.299Z,100719.13
2022-10-23T04:40:24.074Z,100715.56
2022-10-23T04:42:53.309Z,100724.66
2022-10-23T04:45:22.239Z,100719.13
2022-10-23T04:47:53.585Z,100717.59
2022-10-23T04:50:25.646Z,100719.31
2022-10-23T04:53:06.589Z,100724.41
2022-10-23T04:55:35.941Z,100731.31
2022-10-23T04:58:04.912Z,100736.91
2022-10-23T05:00:33.433Z,100735.87
2022-10-23T05:03:02.441Z,100727.19
2022-10-23T05:05:31.765Z,100740.84
2022-10-23T05:08:00.127Z,100746.94
2022-10-23T05:10:29.947Z,100737.19
2022-10-23T05:12:59.284Z,100740.69
2022-10-23T05:15:27.261Z,100740.62
2022-10-23T05:17:59.411Z,100739.44
2022-10-23T05:20:30.773Z,100737.06
2022-10-23T05:23:00.684Z,100739.72
2022-10-23T05:25:30.827Z,100734.75
2022-10-23T05:28:00.204Z,100737.72
2022-10-23T05:30:28.529Z,100745.66
2022-10-23T05:32:56.739Z,100746.16
2022-10-23T05:35:25.505Z,100749.63
2022-10-23T05:37:54.002Z,100751.31
2022-10-23T05:40:24.410Z,100749.66
2022-10-23T05:42:56.247Z,100752.03
2022-10-23T05:45:29.275Z,100758.28
2022-10-23T05:48:10.816Z,100750.56
2022-10-23T05:50:46.509Z,100753.38
2022-10-23T05:53:16.228Z,100756.69
2022-10-23T05:55:46.053Z,100752.75
2022-10-23T05:58:14.111Z,100758.38
2022-10-23T06:00:43.902Z,100755.75
2022-10-23T06:03:14.124Z,100758.47
2022-10-23T06:05:49.739Z,100755.44
2022-10-23T06:08:19.475Z,100762.75
2022-10-23T06:10:52.673Z,100771.25
2022-10-23T06:13:22.203Z,100772.81
2022-10-23T06:15:51.353Z,100770.62
2022-10-23T06:18:19.822Z,100765.56
2022-10-23T06:20:50.720Z,100778.94
2022-10-23T06:23:20.725Z,100774.84
2022-10-23T06:25:53.677Z,100769.84
2022-10-23T06:28:24.992Z,100776.13
2022-10-23T06:30:55.611Z,100780.84
2022-10-23T06:33:25.179Z,100782.75
2022-10-23T06:35:56.463Z,100790.31
2022-10-23T06:38:25.404Z,100800.56
2022-10-23T06:40:56.180Z,100802.69
2022-10-23T06:43:25.235Z,100809.47
2022-10-23T06:45:54.821Z,100813.34
2022-10-23T06:48:26.844Z,100818.88
2022-10-23T06:50:57.127Z,100816.37
2022-10-23T06:53:28.237Z,100811.06
2022-10-23T06:56:00.626Z,100810.44
2022-10-23T06:58:29.184Z,100812.47
2022-10-23T07:01:06.407Z,100812.91
2022-10-23T07:03:34.990Z,100813.09
2022-10-23T07:06:08.422Z,100813.72
2022-10-23T07:08:39.008Z,100817.53
2022-10-23T07:11:09.346Z,100813.72
2022-10-23T07:13:39.447Z,100812.69
2022-10-23T07:16:16.575Z,100820.16
2022-10-23T07:18:46.029Z,100818.34
2022-10-23T07:21:16.995Z,100815.56
2022-10-23T07:23:46.687Z,100812.25
2022-10-23T07:26:16.849Z,100816.47
2022-10-23T07:28:47.383Z,100815.31
2022-10-23T07:31:20.533Z,100822.19
2022-10-23T07:33:53.030Z,100820.41
2022-10-23T07:36:24.606Z,100817.00
2022-10-23T07:38:52.979Z,100806.97
2022-10-23T07:41:21.627Z,100806.22
2022-10-23T07:43:50.485Z,100809.13
2022-10-23T07:46:19.100Z,100807.59
2022-10-23T07:48:49.452Z,100799.44
2022-10-23T07:51:18.799Z,100807.09
2022-10-23T07:53:48.067Z,100813.25
2022-10-23T07:56:21.196Z,100815.06
2022-10-23T07:58:54.737Z,100808.19
2022-10-23T08:01:30.994Z,100803.13
2022-10-23T08:04:00.756Z,100796.69
2022-10-23T08:06:30.369Z,100794.03
2022-10-23T08:09:02.185Z,100788.72
2022-10-23T08:11:35.870Z,100785.72
2022-10-23T08:14:06.665Z,100777.03
2022-10-23T08:16:37.405Z,100783.94
2022-10-23T08:19:09.294Z,100797.31
2022-10-23T08:21:39.576Z,100784.03
2022-10-23T08:24:13.329Z,100787.47
2022-10-23T08:26:42.482Z,100785.87
2022-10-23T08:29:10.697Z,100785.34
2022-10-23T08:31:39.196Z,100781.75
2022-10-23T08:34:08.167Z,100784.25
2022-10-23T08:36:36.658Z,100793.72
2022-10-23T08:39:05.894Z,100793.72
2022-10-23T08:41:37.946Z,100793.50
2022-10-23T08:44:21.064Z,100793.00
2022-10-23T08:47:30.410Z,100797.50
2022-10-23T08:50:13.599Z,100784.69
2022-10-23T08:52:46.074Z,100778.97
2022-10-23T08:55:38.986Z,100780.28
2022-10-23T08:58:16.915Z,100775.06
2022-10-23T09:00:47.190Z,100782.84
2022-10-23T09:03:15.644Z,100776.09
2022-10-23T09:05:52.523Z,100774.22
2022-10-23T09:08:28.791Z,100784.72
2022-10-23T09:11:06.841Z,100784.78
2022-10-23T09:13:41.050Z,100788.63
2022-10-23T09:16:38.283Z,100783.13
2022-10-23T09:19:14.487Z,100793.06
2022-10-23T09:21:42.834Z,100792.53
2022-10-23T09:24:20.029Z,100800.94
2022-10-23T09:26:50.882Z,100806.53
2022-10-23T09:29:25.030Z,100808.81
2022-10-23T09:31:59.346Z,100813.63
2022-10-23T09:34:29.455Z,100806.37
2022-10-23T09:37:01.084Z,100805.25
2022-10-23T09:39:39.114Z,100811.97
2022-10-23T09:42:34.837Z,100808.03
2022-10-23T09:45:03.517Z,100806.47
2022-10-23T09:47:32.474Z,100805.63
2022-10-23T09:50:00.851Z,100795.47
2022-10-23T09:52:35.489Z,100797.25
2022-10-23T09:55:24.999Z,100799.13
2022-10-23T09:57:55.903Z,100796.81
2022-10-23T10:00:26.551Z,100795.19
2022-10-23T10:03:02.865Z,100790.91
2022-10-23T10:05:37.651Z,100790.44
2022-10-23T10:08:22.521Z,100790.44
2022-10-23T10:11:15.265Z,100794.22
2022-10-23T10:13:56.631Z,100791.69
2022-10-23T10:16:55.479Z,100783.94
2022-10-23T10:19:32.841Z,100787.72
2022-10-23T10:22:04.897Z,100791.53
2022-10-23T10:24:53.438Z,100784.59
2022-10-23T10:27:39.233Z,100783.22
2022-10-23T10:30:20.872Z,100778.50
2022-10-23T10:32:59.975Z,100780.50
2022-10-23T10:35:40.716Z,100777.94
2022-10-23T10:38:09.636Z,100777.50
2022-10-23T10:41:08.234Z,100777.81
2022-10-23T10:43:50.347Z,100776.97
2022-10-23T10:46:42.745Z,100772.34
2022-10-23T10:49:12.652Z,100762.19
2022-10-23T10:52:03.618Z,100751.09
2022-10-23T10:54:50.271Z,100755.47
2022-10-23T10:57:34.804Z,100751.84
2022-10-23T11:00:12.768Z,100743.78
2022-10-23T11:02:50.370Z,100735.44
2022-10-23T11:05:22.486Z,100729.53
2022-10-23T11:08:00.291Z,100726.22
2022-10-23T11:10:29.315Z,100713.56
2022-10-23T11:13:00.042Z,100712.31
2022-10-23T11:15:41.167Z,100718.94
2022-10-23T11:18:20.993Z,100722.53
2022-10-23T11:20:59.724Z,100729.84
2022-10-23T11:23:32.305Z,100725.44
2022-10-23T11:26:14.247Z,100721.47
2022-10-23T11:29:04.303Z,100717.50
2022-10-23T11:31:40.283Z,100714.87
2022-10-23T11:34:23.771Z,100714.41
2022-10-23T11:36:53.751Z,100720.75
2022-10-23T11:39:27.437Z,100717.03
2022-10-23T11:42:13.427Z,100719.31
2022-10-23T11:44:46.462Z,100727.66
2022-10-23T11:47:40.102Z,100720.81
2022-10-23T11:50:13.210Z,100718.87
2022-10-23T11:53:15.051Z,100713.50
2022-10-23T11:56:16.960Z,100708.69
2022-10-23T11:58:56.507Z,100703.25
2022-10-23T12:01:43.040Z,100703.00
2022-10-23T12:04:14.411Z,100699.44
2022-10-23T12:06:56.529Z,100692.72
2022-10-23T12:09:37.813Z,100687.56
2022-10-23T12:12:08.892Z,100687.97
2022-10-23T12:14:39.807Z,100685.13
2022-10-23T12:17:24.019Z,100674.91
2022-10-23T12:20:03.346Z,100677.19
2022-10-23T12:22:47.841Z,100669.84
2022-10-23T12:25:24.665Z,100664.72
2022-10-23T12:28:00.528Z,100667.87
2022-10-23T12:30:41.247Z,100665.16
2022-10-23T12:33:43.159Z,100656.63
2022-10-23T12:36:24.856Z,100654.34
2022-10-23T12:38:54.930Z,100653.97
2022-10-23T12:41:27.041Z,100647.59
2022-10-23T12:43:57.849Z,100637.59
2022-10-23T12:46:36.894Z,100645.78
2022-10-23T12:49:16.422Z,100645.66
2022-10-23T12:51:45.312Z,100634.97
2022-10-23T12:54:17.219Z,100638.62
2022-10-23T12:56:46.021Z,100636.34
2022-10-23T12:59:17.646Z,100638.78
2022-10-23T13:01:50.459Z,100636.59
2022-10-23T13:04:30.703Z,100635.81
2022-10-23T13:07:02.467Z,100632.66
2022-10-23T13:09:36.527Z,100626.16
2022-10-23T13:12:09.320Z,100622.69
2022-10-23T13:14:43.652Z,100628.34
2022-10-23T13:17:14.518Z,100628.25
2022-10-23T13:19:42.551Z,100622.69
2022-10-23T13:22:21.758Z,100616.94
2022-10-23T13:24:50.588Z,100614.34
2022-10-23T13:27:33.822Z,100618.41
2022-10-23T13:30:04.998Z,100606.34
2022-10-23T13:32:36.248Z,100603.59
2022-10-23T13:35:22.326Z,100602.50
2022-10-23T13:37:51.614Z,100597.59
2022-10-23T13:40:23.675Z,100599.50
2022-10-23T13:42:53.482Z,100599.50
2022-10-23T13:45:25.394Z,100595.06
2022-10-23T13:47:53.853Z,100598.75
2022-10-23T13:50:24.572Z,100592.63
2022-10-23T13:52:53.048Z,100593.94
2022-10-23T13:55:25.866Z,100592.94
2022-10-23T13:57:56.675Z,100589.87
2022-10-23T14:00:24.742Z,100587.53
2022-10-23T14:05:20.499Z,100580.22
2022-10-23T14:07:48.585Z,100576.13
2022-10-23T14:10:24.552Z,100580.13
2022-10-23T14:12:55.737Z,100570.06
2022-10-23T14:15:24.958Z,100579.59
2022-10-23T14:17:58.980Z,100567.81
2022-10-23T14:20:29.921Z,100574.84
2022-10-23T14:22:59.009Z,100562.59
2022-10-23T14:25:28.085Z,100561.53
2022-10-23T14:30:23.410Z,100564.97
2022-10-23T14:32:53.060Z,100563.59
2022-10-23T14:35:23.684Z,100559.91
2022-10-23T14:37:52.572Z,100557.03
2022-10-23T14:40:21.166Z,100554.28
2022-10-23T14:42:50.695Z,100548.16
2022-10-23T14:45:19.364Z,100549.16
2022-10-23T14:47:47.395Z,100538.59
2022-10-23T14:50:16.689Z,100537.69
2022-10-23T14:52:46.187Z,100532.47
2022-10-23T14:55:14.784Z,100537.59
2022-10-23T14:57:45.178Z,100529.91
2022-10-23T15:00:13.809Z,100531.91
2022-10-23T15:02:42.386Z,100529.81
2022-10-23T15:05:10.735Z,100529.31
2022-10-23T15:07:40.617Z,100527.16
2022-10-23T15:10:09.601Z,100519.34
2022-10-23T15:12:39.773Z,100508.53
2022-10-23T15:15:08.329Z,100502.31
2022-10-23T15:17:37.658Z,100497.87
2022-10-23T15:20:08.189Z,100497.87
2022-10-23T15:22:35.721Z,100498.22
2022-10-23T15:25:08.053Z,100490.69
2022-10-23T15:27:35.866Z,100500.59
2022-10-23T15:30:04.304Z,100502.97
2022-10-23T15:32:32.970Z,100498.81
2022-10-23T15:35:01.944Z,100512.34
2022-10-23T15:37:31.180Z,100508.78
2022-10-23T15:40:01.317Z,100502.81
2022-10-23T15:42:32.338Z,100507.06
2022-10-23T15:45:00.445Z,100513.53
2022-10-23T15:47:29.947Z,100523.97
2022-10-23T15:49:58.584Z,100519.25
2022-10-23T15:52:28.254Z,100526.66
2022-10-23T15:54:57.458Z,100521.25
2022-10-23T15:57:27.667Z,100517.47
2022-10-23T15:59:56.322Z,100512.34
2022-10-23T16:02:24.420Z,100514.66
2022-10-23T16:04:52.752Z,100501.94
2022-10-23T16:07:21.063Z,100501.53
2022-10-23T16:09:48.949Z,100491.88
2022-10-23T16:12:18.870Z,100503.53
2022-10-23T16:14:48.292Z,100519.38
2022-10-23T16:17:19.834Z,100525.22
2022-10-23T16:19:49.057Z,100527.53
2022-10-23T16:22:17.585Z,100528.34
2022-10-23T16:24:46.191Z,100537.50
2022-10-23T16:27:14.212Z,100544.22
2022-10-23T16:29:43.138Z,100544.63
2022-10-23T16:32:11.589Z,100549.50
2022-10-23T16:34:40.250Z,100557.06
2022-10-23T16:37:10.040Z,100542.16
2022-10-23T16:39:39.363Z,100542.84
2022-10-23T16:42:14.809Z,100544.44
2022-10-23T16:44:48.049Z,100531.53
2022-10-23T16:47:19.098Z,100529.25
2022-10-23T16:49:49.232Z,100532.22
2022-10-23T16:52:18.566Z,100545.53
2022-10-23T16:54:47.380Z,100556.34
2022-10-23T16:57:15.782Z,100557.34
2022-10-23T16:59:45.773Z,100556.69
2022-10-23T17:02:14.652Z,100560.88
2022-10-23T17:04:43.514Z,100565.38
2022-10-23T17:07:13.706Z,100571.72
2022-10-23T17:09:46.766Z,100569.06
2022-10-23T17:12:17.354Z,100566.91
2022-10-23T17:14:46.327Z,100571.12
2022-10-23T17:17:15.563Z,100567.28
2022-10-23T17:19:45.615Z,100562.75
2022-10-23T17:22:16.099Z,100559.75
2022-10-23T17:24:48.877Z,100563.44
2022-10-23T17:27:20.538Z,100563.50
2022-10-23T17:29:51.575Z,100556.59
2022-10-23T17:34:51.363Z,100559.94
2022-10-23T17:37:20.596Z,100551.72
2022-10-23T17:39:53.842Z,100550.72
2022-10-23T17:42:24.788Z,100548.16
2022-10-23T17:44:53.872Z,100539.84
2022-10-23T17:47:26.234Z,100537.94
2022-10-23T17:49:54.680Z,100528.37
2022-10-23T17:52:24.418Z,100537.06
2022-10-23T17:54:55.627Z,100540.38
2022-10-23T17:57:31.609Z,100523.28
2022-10-23T18:00:00.743Z,100526.16
2022-10-23T18:02:30.067Z,100527.75
2022-10-23T18:04:59.204Z,100535.44
2022-10-23T18:07:28.209Z,100525.63
2022-10-23T18:09:55.998Z,100534.34
2022-10-23T18:12:27.685Z,100529.66
2022-10-23T18:14:56.683Z,100536.13
2022-10-23T18:17:25.441Z,100540.16
2022-10-23T18:19:58.391Z,100542.16
2022-10-23T18:22:35.943Z,100548.91
2022-10-23T18:25:06.113Z,100530.84
2022-10-23T18:27:37.675Z,100532.66
2022-10-23T18:30:07.194Z,100531.38
2022-10-23T18:32:37.034Z,100532.03
2022-10-23T18:35:06.353Z,100535.37
2022-10-23T18:37:39.022Z,100536.72
2022-10-23T18:40:13.944Z,100528.03
2022-10-23T18:42:42.609Z,100530.75
2022-10-23T18:45:14.665Z,100537.16
2022-10-23T18:47:46.441Z,100524.47
2022-10-23T18:50:16.756Z,100530.88
2022-10-23T18:52:45.774Z,100521.47
2022-10-23T18:55:13.961Z,100532.22
2022-10-23T18:57:42.029Z,100539.03
2022-10-23T19:00:12.268Z,100537.00
2022-10-23T19:02:41.320Z,100524.81
2022-10-23T19:05:11.055Z,100529.88
2022-10-23T19:07:41.446Z,100520.03
2022-10-23T19:10:14.096Z,100515.44
2022-10-23T19:12:43.552Z,100516.47
2022-10-23T19:15:13.663Z,100513.41
2022-10-23T19:17:41.845Z,100521.75
2022-10-23T19:20:14.793Z,100519.94
2022-10-23T19:22:46.241Z,100530.50
2022-10-23T19:25:19.822Z,100528.03
2022-10-23T19:27:48.443Z,100525.00
2022-10-23T19:30:21.898Z,100531.38
2022-10-23T19:32:52.884Z,100524.75
2022-10-23T19:35:22.596Z,100534.50
2022-10-23T19:37:52.282Z,100535.66
2022-10-23T19:40:20.955Z,100536.97
2022-10-23T19:42:51.451Z,100525.13
2022-10-23T19:45:20.911Z,100526.13
2022-10-23T19:47:50.908Z,100531.97
2022-10-23T19:50:19.782Z,100536.69
2022-10-23T19:52:48.704Z,100528.91
2022-10-23T19:55:17.603Z,100539.28
2022-10-23T19:57:48.947Z,100539.78
2022-10-23T20:00:21.082Z,100542.56
2022-10-23T20:02:51.458Z,100531.84
2022-10-23T20:05:22.667Z,100539.94
2022-10-23T20:07:51.514Z,100531.56
2022-10-23T20:10:19.898Z,100537.22
2022-10-23T20:12:56.956Z,100535.16
2022-10-23T20:15:40.540Z,100540.00
2022-10-23T20:18:10.661Z,100529.88
2022-10-23T20:20:44.208Z,100538.31
2022-10-23T20:23:17.207Z,100542.84
2022-10-23T20:25:51.188Z,100539.25
2022-10-23T20:28:24.932Z,100537.34
2022-10-23T20:31:00.385Z,100521.06
2022-10-23T20:33:30.000Z,100517.16
2022-10-23T20:36:00.040Z,100518.66
2022-10-23T20:38:32.269Z,100513.22
2022-10-23T20:41:06.357Z,100514.72
2022-10-23T20:43:36.469Z,100507.91
2022-10-23T20:46:10.530Z,100499.91
2022-10-23T20:48:44.394Z,100510.34
2022-10-23T20:51:24.835Z,100507.19
2022-10-23T20:53:56.700Z,100497.56
2022-10-23T20:56:30.749Z,100496.78
2022-10-23T20:59:08.453Z,100493.88
2022-10-23T21:01:41.642Z,100503.00
2022-10-23T21:04:13.195Z,100505.78
2022-10-23T21:06:57.821Z,100504.81
2022-10-23T21:09:31.103Z,100503.94
2022-10-23T21:12:00.523Z,100499.91
2022-10-23T21:14:29.446Z,100487.72
2022-10-23T21:16:57.302Z,100488.22
2022-10-23T21:19:26.384Z,100487.84
2022-10-23T21:21:55.527Z,100483.41
2022-10-23T21:24:24.708Z,100493.97
2022-10-23T21:26:53.393Z,100493.41
2022-10-23T21:29:21.287Z,100499.84
2022-10-23T21:31:54.257Z,100495.09
2022-10-23T21:34:24.747Z,100490.69
2022-10-23T21:37:11.879Z,100491.78
2022-10-23T21:39:42.587Z,100491.81
2022-10-23T21:42:11.877Z,100499.47
2022-10-23T21:44:40.021Z,100497.13
2022-10-23T21:47:14.651Z,100493.31
2022-10-23T21:49:44.184Z,100488.44
2022-10-23T21:52:14.042Z,100487.66
2022-10-23T21:54:45.087Z,100485.66
2022-10-23T21:57:14.555Z,100487.97
2022-10-23T21:59:42.651Z,100490.91
2022-10-23T22:02:14.146Z,100481.47
2022-10-23T22:04:44.440Z,100481.06
2022-10-23T22:07:19.193Z,100479.38
2022-10-23T22:09:49.358Z,100488.16
2022-10-23T22:12:20.936Z,100497.38
2022-10-23T22:14:53.502Z,100492.41
2022-10-23T22:17:24.985Z,100489.38
2022-10-23T22:19:57.542Z,100482.31
2022-10-23T22:22:26.500Z,100481.37
2022-10-23T22:24:59.325Z,100483.31
2022-10-23T22:27:28.558Z,100479.78
2022-10-23T22:30:05.895Z,100482.03
2022-10-23T22:32:36.916Z,100493.97
2022-10-23T22:35:08.625Z,100497.87
2022-10-23T22:37:38.419Z,100493.47
2022-10-23T22:40:10.785Z,100491.28
2022-10-23T22:42:40.388Z,100491.31
2022-10-23T22:45:12.111Z,100490.91
2022-10-23T22:47:43.630Z,100481.41
2022-10-23T22:50:16.112Z,100485.03
2022-10-23T22:52:46.159Z,100481.84
2022-10-23T22:55:18.198Z,100476.78
2022-10-23T22:57:47.899Z,100481.94
2022-10-23T23:00:19.142Z,100471.84
2022-10-23T23:02:48.785Z,100471.59
2022-10-23T23:05:21.985Z,100473.09
2022-10-23T23:07:53.317Z,100467.84
2022-10-23T23:10:23.017Z,100475.34
2022-10-23T23:12:56.012Z,100471.09
2022-10-23T23:15:30.285Z,100463.50
2022-10-23T23:18:00.609Z,100462.16
2022-10-23T23:20:31.327Z,100462.75
2022-10-23T23:23:01.039Z,100477.34
2022-10-23T23:25:33.904Z,100472.44
2022-10-23T23:28:02.951Z,100474.91
2022-10-23T23:30:34.139Z,100469.16
2022-10-23T23:33:05.268Z,100461.16
2022-10-23T23:35:42.242Z,100467.31
2022-10-23T23:38:12.960Z,100453.84
2022-10-23T23:40:51.616Z,100447.50
2022-10-23T23:43:21.814Z,100449.44
2022-10-23T23:45:53.684Z,100453.28
2022-10-23T23:48:23.455Z,100451.34
2022-10-23T23:50:56.020Z,100460.13
2022-10-23T23:53:26.145Z,100465.84
2022-10-23T23:56:00.124Z,100454.59
2022-10-23T23:58:30.200Z,100454.94
